Time;durP1;ratioP1;P1;durP2;ratioP2;P2;SDS_P1;SDS_P2;PMS_P1;PMS_P2;Temp;Humidity;BMP_temperature;BMP_pressure;BME280_temperature;BME280_humidity;BME280_pressure;Samples;Min_cycle;Max_cycle;Signal;HPM_P1;HPM_P2
2023/12/22 00:00:20;;;;;;;12.00;2.70;;;;;;;;;;103676;1291;544831;-73
2023/12/22 00:03:57;;;;;;;14.20;2.70;;;;;;;;;;103809;1303;545259;-73
2023/12/22 00:07:34;;;;;;;11.60;2.30;;;;;;;;;;103788;1294;546319;-72
2023/12/22 00:11:12;;;;;;;10.60;2.30;;;;;;;;;;104016;1292;545765;-71
2023/12/22 00:14:57;;;;;;;6.50;1.40;;;;;;;;;;103732;1302;545935;-73
2023/12/22 00:18:23;;;;;;;10.90;2.20;;;;;;;;;;103822;1292;545121;-73
2023/12/22 00:22:05;;;;;;;13.20;2.40;;;;;;;;;;103955;1288;544793;-73
2023/12/22 00:25:49;;;;;;;10.10;2.20;;;;;;;;;;103730;1290;544926;-74
2023/12/22 00:29:19;;;;;;;8.40;2.10;;;;;;;;;;103808;1292;545382;-73
2023/12/22 00:33:02;;;;;;;11.10;2.00;;;;;;;;;;103915;1289;544780;-70
2023/12/22 00:36:34;;;;;;;11.70;2.20;;;;;;;;;;103908;1290;544826;-73
2023/12/22 00:40:12;;;;;;;10.60;1.80;;;;;;;;;;103828;1291;545425;-72
2023/12/22 00:43:55;;;;;;;14.00;2.10;;;;;;;;;;103678;1302;545146;-72
2023/12/22 00:47:36;;;;;;;12.30;2.50;;;;;;;;;;103877;1292;544886;-72
2023/12/22 00:51:06;;;;;;;9.20;1.90;;;;;;;;;;103798;1292;544974;-74
2023/12/22 00:54:42;;;;;;;8.80;1.90;;;;;;;;;;103943;1292;545407;-72
2023/12/22 00:58:19;;;;;;;10.80;1.90;;;;;;;;;;103767;1291;544875;-74
2023/12/22 01:01:53;;;;;;;10.40;1.70;;;;;;;;;;104106;1290;544971;-74
2023/12/22 01:05:33;;;;;;;11.90;2.20;;;;;;;;;;103855;1295;545425;-72
2023/12/22 01:09:15;;;;;;;11.90;2.50;;;;;;;;;;103878;1290;545422;-73
2023/12/22 01:12:49;;;;;;;14.30;3.10;;;;;;;;;;103826;1292;545179;-74
2023/12/22 01:16:26;;;;;;;13.90;2.70;;;;;;;;;;103786;1292;545368;-67
2023/12/22 01:20:04;;;;;;;12.10;2.30;;;;;;;;;;103801;1288;546502;-69
2023/12/22 01:23:41;;;;;;;10.50;2.20;;;;;;;;;;104027;1287;545476;-71
2023/12/22 01:27:19;;;;;;;10.90;2.30;;;;;;;;;;103865;1290;544805;-70
2023/12/22 01:30:57;;;;;;;14.20;2.70;;;;;;;;;;104278;1283;545063;-71
2023/12/22 01:34:34;;;;;;;15.50;2.80;;;;;;;;;;104075;1292;544754;-71
2023/12/22 01:38:11;;;;;;;9.20;1.90;;;;;;;;;;103826;1292;545230;-72
2023/12/22 01:41:58;;;;;;;11.50;2.40;;;;;;;;;;103726;1291;544882;-71
2023/12/22 01:45:22;;;;;;;13.80;2.60;;;;;;;;;;103785;1291;545726;-75
2023/12/22 01:49:05;;;;;;;14.00;3.00;;;;;;;;;;103884;1290;544755;-70
2023/12/22 01:52:41;;;;;;;12.10;2.20;;;;;;;;;;103997;1289;545362;-71
2023/12/22 01:56:19;;;;;;;11.40;2.60;;;;;;;;;;103909;1295;544691;-73
2023/12/22 01:59:56;;;;;;;13.40;2.50;;;;;;;;;;103815;1292;544759;-72
2023/12/22 02:03:34;;;;;;;10.30;2.30;;;;;;;;;;103975;1292;545593;-71
2023/12/22 02:07:12;;;;;;;9.80;2.10;;;;;;;;;;103750;1291;545176;-71
2023/12/22 02:10:48;;;;;;;13.00;2.60;;;;;;;;;;103798;1289;544671;-72
2023/12/22 02:14:26;;;;;;;14.80;2.80;;;;;;;;;;103965;1292;544888;-73
2023/12/22 02:18:07;;;;;;;10.50;2.00;;;;;;;;;;104639;1283;544990;-71
2023/12/22 02:22:00;;;;;;;9.70;1.80;;;;;;;;;;103724;1291;544808;-70
2023/12/22 02:25:19;;;;;;;10.50;2.60;;;;;;;;;;103800;1295;544961;-72
2023/12/22 02:28:57;;;;;;;10.30;2.10;;;;;;;;;;103873;1291;544791;-70
2023/12/22 02:32:56;;;;;;;2.50;0.50;;;;;;;;;;103836;1301;545284;-70
2023/12/22 02:36:12;;;;;;;1.50;0.40;;;;;;;;;;104494;1283;545527;-70
2023/12/22 02:39:49;;;;;;;2.90;0.60;;;;;;;;;;103893;1295;545187;-71
2023/12/22 02:43:29;;;;;;;1.60;0.50;;;;;;;;;;103735;1292;545709;-72
2023/12/22 02:47:05;;;;;;;1.00;0.50;;;;;;;;;;103707;1291;545331;-72
2023/12/22 02:50:41;;;;;;;1.70;0.50;;;;;;;;;;103791;1291;545728;-73
2023/12/22 02:54:24;;;;;;;3.40;0.80;;;;;;;;;;103717;1295;545065;-72
2023/12/22 02:57:55;;;;;;;1.20;0.40;;;;;;;;;;103788;1291;544779;-73
2023/12/22 03:01:39;;;;;;;3.80;1.20;;;;;;;;;;103760;1290;544887;-72
2023/12/22 03:05:17;;;;;;;0.70;0.30;;;;;;;;;;103733;1294;545311;-72
2023/12/22 03:08:54;;;;;;;0.90;0.40;;;;;;;;;;103643;1292;545298;-73
2023/12/22 03:12:28;;;;;;;1.50;0.30;;;;;;;;;;103937;1289;545574;-73
2023/12/22 03:16:08;;;;;;;3.30;0.50;;;;;;;;;;103807;1291;545422;-72
2023/12/22 03:19:45;;;;;;;3.40;0.60;;;;;;;;;;103733;1292;545462;-75
2023/12/22 03:23:27;;;;;;;4.70;0.80;;;;;;;;;;104140;1289;545435;-74
2023/12/22 03:27:04;;;;;;;7.20;1.10;;;;;;;;;;103803;1293;544923;-74
2023/12/22 03:30:33;;;;;;;5.50;1.30;;;;;;;;;;103955;1289;544702;-73
2023/12/22 03:34:19;;;;;;;8.40;1.60;;;;;;;;;;103869;1300;544865;-74
2023/12/22 03:37:50;;;;;;;9.10;2.00;;;;;;;;;;104385;1286;545035;-75
2023/12/22 03:42:06;;;;;;;10.70;1.40;;;;;;;;;;103872;1289;545594;-77
2023/12/22 03:45:26;;;;;;;12.20;1.90;;;;;;;;;;103991;1288;544829;-75
2023/12/22 03:48:47;;;;;;;15.10;2.60;;;;;;;;;;103766;1295;544907;-78
2023/12/22 03:56:11;;;;;;;10.00;1.90;;;;;;;;;;103873;1289;545919;-76
2023/12/22 04:03:58;;;;;;;17.00;2.50;;;;;;;;;;103648;1292;545211;-79
2023/12/22 04:10:58;;;;;;;;;;;;;;;;;;;;;
2023/12/22 04:14:59;;;;;;;;;;;;;;;;;;;;;
2023/12/22 04:18:45;;;;;;;;;;;;;;;;;;;;;
2023/12/22 04:22:23;;;;;;;;;;;;;;;;;;;;;
2023/12/22 04:25:52;;;;;;;11.40;2.10;;;;;;;;;;103806;1291;544873;-77
2023/12/22 04:29:08;;;;;;;8.80;1.80;;;;;;;;;;103922;1289;545006;-75
2023/12/22 04:47:54;;;;;;;9.70;2.30;;;;;;;;;;103905;1297;544845;-87
2023/12/22 05:09:57;;;;;;;9.40;2.00;;;;;;;;;;103835;1289;549332;-89
2023/12/22 05:13:44;;;;;;;12.00;2.10;;;;;;;;;;103828;1293;544997;-87
2023/12/22 05:17:14;;;;;;;10.30;2.50;;;;;;;;;;104247;1289;545248;-82
2023/12/22 05:20:52;;;;;;;9.50;1.70;;;;;;;;;;103932;1289;547571;-85
2023/12/22 05:24:20;;;;;;;11.30;2.30;;;;;;;;;;104800;1281;545725;-83
2023/12/22 05:31:39;;;;;;;13.10;2.30;;;;;;;;;;103900;1293;547883;-87
2023/12/22 05:35:26;;;;;;;9.70;1.80;;;;;;;;;;103795;1289;545066;-81
2023/12/22 05:39:07;;;;;;;10.00;1.50;;;;;;;;;;103761;1292;545022;-82
2023/12/22 05:42:35;;;;;;;9.00;2.00;;;;;;;;;;103904;1289;544973;-77
2023/12/22 05:46:05;;;;;;;9.00;1.70;;;;;;;;;;103960;1289;545659;-81
2023/12/22 05:49:26;;;;;;;9.10;2.10;;;;;;;;;;103886;1295;544983;-80
2023/12/22 05:53:31;;;;;;;6.70;1.40;;;;;;;;;;103759;1292;545437;-77
2023/12/22 05:56:41;;;;;;;9.50;1.90;;;;;;;;;;103708;1292;544809;-74
2023/12/22 06:00:26;;;;;;;9.30;1.60;;;;;;;;;;103613;1291;545443;-75
2023/12/22 06:04:03;;;;;;;8.30;1.30;;;;;;;;;;103646;1291;548041;-76
2023/12/22 06:07:31;;;;;;;6.90;1.40;;;;;;;;;;103844;1289;545355;-72
2023/12/22 06:11:08;;;;;;;7.30;1.20;;;;;;;;;;104011;1289;545056;-74
2023/12/22 06:14:54;;;;;;;6.50;1.20;;;;;;;;;;103860;1295;545717;-74
2023/12/22 06:18:38;;;;;;;5.90;1.10;;;;;;;;;;103564;1295;545349;-73
2023/12/22 06:22:05;;;;;;;6.10;1.40;;;;;;;;;;103757;1291;544741;-72
2023/12/22 06:25:37;;;;;;;10.20;3.40;;;;;;;;;;103972;1289;544978;-74
2023/12/22 06:29:16;;;;;;;19.60;8.10;;;;;;;;;;103726;1291;544870;-74
2023/12/22 06:32:53;;;;;;;8.80;3.60;;;;;;;;;;103976;1289;545366;-74
2023/12/22 06:36:30;;;;;;;5.60;1.10;;;;;;;;;;103799;1294;545561;-75
2023/12/22 06:40:18;;;;;;;5.10;1.40;;;;;;;;;;103611;1292;545645;-74
2023/12/22 06:43:45;;;;;;;2.80;0.70;;;;;;;;;;104046;1289;544987;-73
2023/12/22 06:47:19;;;;;;;3.40;0.80;;;;;;;;;;103829;1299;545001;-75
2023/12/22 06:51:39;;;;;;;4.80;1.00;;;;;;;;;;103841;1289;544736;-75
2023/12/22 06:54:59;;;;;;;6.50;1.50;;;;;;;;;;104774;1286;545478;-76
2023/12/22 06:58:25;;;;;;;6.00;1.10;;;;;;;;;;103849;1292;544985;-74
2023/12/22 07:02:02;;;;;;;5.30;0.90;;;;;;;;;;104164;1289;545943;-73
2023/12/22 07:05:41;;;;;;;11.60;5.20;;;;;;;;;;103861;1292;544885;-72
2023/12/22 07:09:17;;;;;;;6.00;1.30;;;;;;;;;;104276;1286;545638;-74
2023/12/22 07:12:54;;;;;;;10.20;2.00;;;;;;;;;;103803;1290;545536;-74
2023/12/22 07:16:34;;;;;;;8.80;2.30;;;;;;;;;;103944;1289;545123;-73
2023/12/22 07:20:20;;;;;;;10.30;1.90;;;;;;;;;;103604;1290;545410;-71
2023/12/22 07:23:47;;;;;;;6.60;1.30;;;;;;;;;;103847;1292;544710;-73
2023/12/22 07:27:24;;;;;;;9.80;2.00;;;;;;;;;;103782;1291;544911;-73
2023/12/22 07:31:02;;;;;;;8.30;1.50;;;;;;;;;;103812;1294;545195;-72
2023/12/22 07:34:39;;;;;;;8.30;1.80;;;;;;;;;;103787;1292;545034;-72
2023/12/22 07:38:17;;;;;;;8.50;2.10;;;;;;;;;;103799;1290;545037;-69
2023/12/22 07:41:54;;;;;;;7.60;2.10;;;;;;;;;;104013;1299;544805;-70
2023/12/22 07:45:32;;;;;;;10.50;1.90;;;;;;;;;;103841;1289;544917;-70
2023/12/22 07:49:09;;;;;;;9.40;1.60;;;;;;;;;;103652;1291;546173;-69
2023/12/22 07:52:46;;;;;;;6.50;1.40;;;;;;;;;;103670;1290;544949;-69
2023/12/22 07:56:24;;;;;;;9.60;2.00;;;;;;;;;;104028;1288;544763;-70
2023/12/22 08:00:01;;;;;;;8.50;1.30;;;;;;;;;;104236;1292;545220;-70
2023/12/22 08:03:39;;;;;;;8.70;1.30;;;;;;;;;;103705;1292;545154;-70
2023/12/22 08:07:16;;;;;;;11.20;1.60;;;;;;;;;;103965;1288;544859;-70
2023/12/22 08:10:54;;;;;;;8.00;1.10;;;;;;;;;;104035;1292;544760;-70
2023/12/22 08:14:31;;;;;;;5.40;1.10;;;;;;;;;;103732;1291;544928;-71
2023/12/22 08:18:09;;;;;;;6.50;1.00;;;;;;;;;;103846;1291;544939;-71
2023/12/22 08:21:49;;;;;;;5.90;1.50;;;;;;;;;;103739;1291;544852;-72
2023/12/22 08:25:24;;;;;;;5.50;1.50;;;;;;;;;;104056;1289;545113;-71
2023/12/22 08:29:00;;;;;;;6.90;1.70;;;;;;;;;;103774;1295;544992;-72
2023/12/22 08:32:38;;;;;;;11.90;6.30;;;;;;;;;;103826;1295;546127;-72
2023/12/22 08:36:21;;;;;;;4.50;1.40;;;;;;;;;;103875;1290;545932;-71
2023/12/22 08:39:53;;;;;;;6.10;1.70;;;;;;;;;;103744;1297;545079;-72
2023/12/22 08:43:33;;;;;;;7.80;1.90;;;;;;;;;;104126;1289;545065;-71
2023/12/22 08:47:12;;;;;;;6.80;1.40;;;;;;;;;;103793;1289;544815;-71
2023/12/22 08:50:46;;;;;;;8.70;2.50;;;;;;;;;;103893;1295;544730;-72
2023/12/22 08:54:23;;;;;;;8.70;2.70;;;;;;;;;;104022;1288;545764;-75
2023/12/22 08:58:01;;;;;;;6.50;1.60;;;;;;;;;;103892;1289;544878;-71
2023/12/22 09:01:44;;;;;;;8.80;2.20;;;;;;;;;;103681;1292;544910;-73
2023/12/22 09:05:20;;;;;;;9.60;1.80;;;;;;;;;;104004;1290;544750;-73
2023/12/22 09:08:53;;;;;;;7.20;2.00;;;;;;;;;;103852;1292;545065;-74
2023/12/22 09:12:30;;;;;;;5.50;1.40;;;;;;;;;;104096;1289;545091;-74
2023/12/22 09:16:15;;;;;;;6.50;1.40;;;;;;;;;;103723;1292;545249;-72
2023/12/22 09:19:46;;;;;;;6.60;1.50;;;;;;;;;;103719;1294;544906;-72
2023/12/22 09:23:32;;;;;;;6.30;1.50;;;;;;;;;;103798;1292;544902;-72
2023/12/22 09:27:02;;;;;;;6.00;1.40;;;;;;;;;;104020;1288;545658;-72
2023/12/22 09:30:38;;;;;;;7.80;1.60;;;;;;;;;;103935;1301;544812;-72
2023/12/22 09:34:15;;;;;;;8.40;1.50;;;;;;;;;;104004;1289;544985;-73
2023/12/22 09:37:53;;;;;;;5.40;1.10;;;;;;;;;;103778;1292;544966;-71
2023/12/22 09:41:31;;;;;;;6.80;1.50;;;;;;;;;;103705;1295;544938;-68
2023/12/22 09:45:26;;;;;;;8.00;1.60;;;;;;;;;;103921;1291;545208;-71
2023/12/22 09:48:45;;;;;;;9.00;1.60;;;;;;;;;;104243;1286;545047;-71
2023/12/22 09:52:25;;;;;;;7.30;2.00;;;;;;;;;;103754;1294;544800;-70
2023/12/22 09:56:00;;;;;;;9.40;1.80;;;;;;;;;;103897;1289;545239;-72
2023/12/22 09:59:38;;;;;;;7.90;1.60;;;;;;;;;;103777;1291;544910;-71
2023/12/22 10:03:16;;;;;;;7.90;1.70;;;;;;;;;;103819;1289;545204;-71
2023/12/22 10:06:53;;;;;;;10.20;1.80;;;;;;;;;;103883;1291;544965;-71
2023/12/22 10:10:30;;;;;;;8.80;1.80;;;;;;;;;;103827;1291;545646;-69
2023/12/22 10:14:08;;;;;;;8.30;1.90;;;;;;;;;;104280;1287;545608;-70
2023/12/22 10:17:45;;;;;;;7.00;1.70;;;;;;;;;;103590;1292;545405;-71
2023/12/22 10:21:23;;;;;;;8.50;2.50;;;;;;;;;;103720;1292;544998;-71
2023/12/22 10:25:00;;;;;;;11.70;2.60;;;;;;;;;;103820;1293;545724;-70
2023/12/22 10:29:01;;;;;;;7.80;2.10;;;;;;;;;;103744;1294;545198;-75
2023/12/22 10:32:15;;;;;;;7.10;1.60;;;;;;;;;;103891;1290;544945;-69
2023/12/22 10:35:53;;;;;;;9.50;1.80;;;;;;;;;;103781;1289;545225;-68
2023/12/22 10:39:30;;;;;;;8.30;1.80;;;;;;;;;;103564;1291;545003;-72
2023/12/22 10:43:07;;;;;;;5.90;2.10;;;;;;;;;;103857;1289;545166;-71
2023/12/22 10:46:50;;;;;;;5.70;2.30;;;;;;;;;;103707;1289;544752;-71
2023/12/22 10:50:24;;;;;;;6.60;1.80;;;;;;;;;;104297;1288;545085;-71
2023/12/22 10:54:00;;;;;;;4.80;1.70;;;;;;;;;;104179;1287;544829;-69
2023/12/22 10:57:38;;;;;;;6.90;1.50;;;;;;;;;;103860;1290;544954;-70
2023/12/22 11:01:15;;;;;;;6.20;2.30;;;;;;;;;;103684;1294;545369;-72
2023/12/22 11:04:48;;;;;;;6.80;1.40;;;;;;;;;;104000;1288;545383;-72
2023/12/22 11:08:32;;;;;;;7.90;1.60;;;;;;;;;;103652;1291;545238;-71
2023/12/22 11:12:07;;;;;;;8.80;1.90;;;;;;;;;;104466;1295;544946;-71
2023/12/22 11:15:45;;;;;;;9.40;2.70;;;;;;;;;;103881;1288;544944;-71
2023/12/22 11:19:23;;;;;;;10.90;3.10;;;;;;;;;;104146;1287;545153;-71
2023/12/22 11:22:57;;;;;;;6.30;1.30;;;;;;;;;;104304;1283;544858;-75
2023/12/22 11:26:34;;;;;;;6.00;1.40;;;;;;;;;;103825;1292;545382;-74
2023/12/22 11:30:16;;;;;;;12.20;2.50;;;;;;;;;;103672;1288;544886;-72
2023/12/22 11:33:50;;;;;;;8.30;1.40;;;;;;;;;;103986;1299;545060;-72
2023/12/22 11:37:32;;;;;;;6.30;1.50;;;;;;;;;;103787;1295;545148;-71
2023/12/22 11:41:19;;;;;;;13.20;1.70;;;;;;;;;;103940;1288;545354;-71
2023/12/22 11:44:45;;;;;;;7.80;2.00;;;;;;;;;;104261;1285;545738;-69
2023/12/22 11:48:24;;;;;;;7.00;2.10;;;;;;;;;;103944;1290;544955;-69
2023/12/22 11:51:56;;;;;;;6.50;1.60;;;;;;;;;;103839;1292;546168;-71
2023/12/22 11:55:59;;;;;;;11.80;2.80;;;;;;;;;;103823;1295;544992;-70
2023/12/22 11:59:38;;;;;;;10.20;2.10;;;;;;;;;;103776;1295;544785;-70
2023/12/22 12:02:56;;;;;;;8.80;2.00;;;;;;;;;;103766;1291;545010;-70
2023/12/22 12:06:26;;;;;;;11.10;2.50;;;;;;;;;;103843;1289;545134;-71
2023/12/22 12:10:08;;;;;;;9.80;2.00;;;;;;;;;;103698;1290;545721;-71
2023/12/22 12:13:46;;;;;;;12.20;2.20;;;;;;;;;;103849;1291;544713;-70
2023/12/22 12:17:23;;;;;;;10.10;2.10;;;;;;;;;;103918;1290;544961;-70
2023/12/22 12:21:00;;;;;;;8.50;1.80;;;;;;;;;;103992;1292;545022;-70
2023/12/22 12:24:38;;;;;;;9.00;1.90;;;;;;;;;;103733;1295;544952;-70
2023/12/22 12:28:18;;;;;;;8.80;1.80;;;;;;;;;;103875;1292;545027;-72
2023/12/22 12:31:53;;;;;;;10.20;2.10;;;;;;;;;;103866;1289;545842;-72
2023/12/22 12:35:30;;;;;;;10.00;1.80;;;;;;;;;;104101;1295;544976;-72
2023/12/22 12:39:08;;;;;;;9.00;2.50;;;;;;;;;;104128;1290;545782;-71
2023/12/22 12:42:45;;;;;;;9.90;2.40;;;;;;;;;;103870;1289;544956;-71
2023/12/22 12:46:25;;;;;;;9.10;1.90;;;;;;;;;;104195;1286;545066;-71
2023/12/22 12:50:00;;;;;;;7.20;1.80;;;;;;;;;;104015;1289;544927;-73
2023/12/22 12:53:38;;;;;;;8.30;1.90;;;;;;;;;;103959;1292;544976;-70
2023/12/22 12:57:15;;;;;;;7.70;1.70;;;;;;;;;;104122;1290;544919;-70
2023/12/22 13:00:56;;;;;;;8.30;1.90;;;;;;;;;;103792;1292;545078;-69
2023/12/22 13:04:37;;;;;;;10.00;2.40;;;;;;;;;;103769;1296;545030;-74
2023/12/22 13:08:11;;;;;;;10.00;2.50;;;;;;;;;;103947;1289;545070;-73
2023/12/22 13:11:48;;;;;;;11.90;3.00;;;;;;;;;;103910;1289;545343;-71
2023/12/22 13:15:22;;;;;;;15.60;3.90;;;;;;;;;;103834;1290;545091;-68
2023/12/22 13:19:07;;;;;;;13.00;4.90;;;;;;;;;;103812;1290;544731;-71
2023/12/22 13:22:37;;;;;;;12.70;4.20;;;;;;;;;;103773;1292;544771;-71
2023/12/22 13:26:19;;;;;;;10.00;3.20;;;;;;;;;;103754;1292;544941;-71
2023/12/22 13:29:54;;;;;;;7.80;2.30;;;;;;;;;;103770;1292;545132;-70
2023/12/22 13:33:33;;;;;;;8.40;2.00;;;;;;;;;;103858;1293;545358;-72
2023/12/22 13:37:07;;;;;;;8.00;1.90;;;;;;;;;;104460;1283;544710;-72
2023/12/22 13:40:47;;;;;;;16.10;5.70;;;;;;;;;;104266;1286;545921;-70
2023/12/22 13:44:30;;;;;;;14.10;5.40;;;;;;;;;;104315;1285;544825;-72
2023/12/22 13:48:08;;;;;;;18.40;7.10;;;;;;;;;;103764;1293;545063;-73
2023/12/22 13:51:41;;;;;;;13.90;5.20;;;;;;;;;;103855;1291;545224;-73
2023/12/22 13:55:15;;;;;;;12.70;4.40;;;;;;;;;;103915;1293;545574;-72
2023/12/22 13:58:51;;;;;;;13.70;5.60;;;;;;;;;;103748;1292;546139;-75
2023/12/22 14:02:29;;;;;;;11.90;2.80;;;;;;;;;;103791;1291;546716;-72
2023/12/22 14:06:08;;;;;;;10.20;2.10;;;;;;;;;;103905;1292;545716;-70
2023/12/22 14:09:44;;;;;;;12.80;3.20;;;;;;;;;;103732;1297;545089;-73
2023/12/22 14:13:27;;;;;;;10.30;2.90;;;;;;;;;;103805;1289;544839;-73
2023/12/22 14:16:59;;;;;;;10.80;3.20;;;;;;;;;;104165;1288;545754;-72
2023/12/22 14:20:39;;;;;;;10.40;2.20;;;;;;;;;;103761;1292;544882;-70
2023/12/22 14:24:14;;;;;;;9.50;3.60;;;;;;;;;;103719;1295;545900;-71
2023/12/22 14:27:53;;;;;;;9.50;3.20;;;;;;;;;;103638;1292;545602;-71
2023/12/22 14:31:42;;;;;;;;;;;;;;;;;;;;;
2023/12/22 14:35:07;;;;;;;9.30;2.10;;;;;;;;;;103730;1295;546056;-69
2023/12/22 14:38:44;;;;;;;7.60;1.90;;;;;;;;;;104119;1289;545087;-71
2023/12/22 14:42:21;;;;;;;9.90;3.80;;;;;;;;;;103847;1291;545024;-71
2023/12/22 14:45:59;;;;;;;11.50;4.30;;;;;;;;;;103772;1296;545574;-70
2023/12/22 14:49:39;;;;;;;11.50;5.60;;;;;;;;;;103797;1292;545693;-71
2023/12/22 14:53:14;;;;;;;16.00;6.70;;;;;;;;;;103922;1289;545828;-67
2023/12/22 14:56:57;;;;;;;11.40;3.40;;;;;;;;;;103607;1292;545012;-72
2023/12/22 15:00:28;;;;;;;16.50;6.40;;;;;;;;;;103877;1292;545859;-72
2023/12/22 15:04:06;;;;;;;12.80;4.00;;;;;;;;;;104185;1285;545125;-70
2023/12/22 15:07:49;;;;;;;13.20;3.30;;;;;;;;;;103671;1295;544878;-71
2023/12/22 15:11:21;;;;;;;9.30;2.00;;;;;;;;;;104213;1286;544893;-71
2023/12/22 15:14:58;;;;;;;9.10;3.00;;;;;;;;;;103782;1295;545583;-71
2023/12/22 15:18:36;;;;;;;8.10;2.10;;;;;;;;;;103707;1292;544771;-72
2023/12/22 15:22:13;;;;;;;10.80;2.70;;;;;;;;;;103808;1292;544798;-73
2023/12/22 15:25:51;;;;;;;17.60;7.40;;;;;;;;;;103793;1295;545621;-73
2023/12/22 15:29:28;;;;;;;12.30;3.80;;;;;;;;;;103988;1289;545028;-71
2023/12/22 15:33:06;;;;;;;21.30;9.10;;;;;;;;;;103757;1291;545383;-70
2023/12/22 15:36:43;;;;;;;22.90;9.30;;;;;;;;;;103924;1292;545233;-73
2023/12/22 15:40:21;;;;;;;21.70;7.60;;;;;;;;;;103825;1290;544989;-72
2023/12/22 15:43:59;;;;;;;21.10;9.40;;;;;;;;;;103796;1290;544994;-72
2023/12/22 15:47:31;;;;;;;33.50;14.70;;;;;;;;;;104064;1290;544795;-74
2023/12/22 15:51:16;;;;;;;26.70;11.60;;;;;;;;;;103826;1289;544954;-71
2023/12/22 15:54:51;;;;;;;19.00;7.60;;;;;;;;;;103918;1301;544986;-72
2023/12/22 15:58:27;;;;;;;20.40;9.60;;;;;;;;;;104500;1283;545131;-72
2023/12/22 16:02:06;;;;;;;26.30;11.70;;;;;;;;;;104089;1289;545143;-74
2023/12/22 16:05:43;;;;;;;11.00;2.40;;;;;;;;;;104116;1300;544973;-72
2023/12/22 16:09:21;;;;;;;16.60;5.50;;;;;;;;;;103845;1291;544784;-73
2023/12/22 16:13:03;;;;;;;14.90;5.40;;;;;;;;;;103925;1289;545760;-72
2023/12/22 16:16:35;;;;;;;13.10;4.60;;;;;;;;;;103902;1292;545457;-74
2023/12/22 16:20:15;;;;;;;9.70;2.60;;;;;;;;;;103871;1292;544927;-71
2023/12/22 16:23:51;;;;;;;19.40;6.60;;;;;;;;;;103851;1291;545678;-71
2023/12/22 16:27:33;;;;;;;13.10;4.90;;;;;;;;;;103649;1292;544984;-72
2023/12/22 16:31:02;;;;;;;10.00;3.50;;;;;;;;;;104177;1286;545351;-74
2023/12/22 16:34:46;;;;;;;13.30;4.90;;;;;;;;;;103754;1292;544748;-70
2023/12/22 16:38:21;;;;;;;26.80;12.30;;;;;;;;;;103702;1291;545407;-74
2023/12/22 16:41:58;;;;;;;23.70;9.30;;;;;;;;;;103686;1305;544842;-71
2023/12/22 16:45:36;;;;;;;14.30;6.10;;;;;;;;;;104013;1291;544975;-73
2023/12/22 16:49:13;;;;;;;17.50;6.80;;;;;;;;;;103929;1291;545287;-73
2023/12/22 16:52:57;;;;;;;21.00;7.60;;;;;;;;;;103768;1292;544744;-74
2023/12/22 16:56:28;;;;;;;17.70;6.80;;;;;;;;;;103766;1291;545106;-72
2023/12/22 17:00:06;;;;;;;20.70;8.20;;;;;;;;;;104431;1289;545888;-73
2023/12/22 17:03:44;;;;;;;21.20;7.90;;;;;;;;;;103984;1289;544899;-72
2023/12/22 17:07:20;;;;;;;17.20;6.40;;;;;;;;;;103793;1292;545329;-72
2023/12/22 17:10:58;;;;;;;15.00;5.20;;;;;;;;;;103808;1297;545108;-71
2023/12/22 17:14:35;;;;;;;12.20;4.30;;;;;;;;;;103985;1287;545375;-71
2023/12/22 17:18:12;;;;;;;13.30;4.70;;;;;;;;;;103759;1298;544731;-72
2023/12/22 17:21:50;;;;;;;12.20;4.40;;;;;;;;;;103811;1292;545449;-71
2023/12/22 17:25:28;;;;;;;24.80;11.30;;;;;;;;;;103912;1292;544862;-70
2023/12/22 17:29:10;;;;;;;24.50;10.50;;;;;;;;;;103577;1297;544883;-72
2023/12/22 17:32:46;;;;;;;11.80;4.60;;;;;;;;;;103917;1291;545589;-73
2023/12/22 17:36:20;;;;;;;15.50;6.60;;;;;;;;;;103880;1291;545689;-73
2023/12/22 17:39:58;;;;;;;18.60;8.90;;;;;;;;;;103970;1292;545581;-71
2023/12/22 17:43:35;;;;;;;19.80;6.80;;;;;;;;;;103960;1293;545244;-70
2023/12/22 17:47:13;;;;;;;13.00;3.80;;;;;;;;;;103671;1294;545231;-72
2023/12/22 17:50:55;;;;;;;9.80;2.50;;;;;;;;;;103919;1295;545257;-75
2023/12/22 17:54:27;;;;;;;15.00;5.70;;;;;;;;;;103808;1292;545379;-71
2023/12/22 17:58:05;;;;;;;11.80;4.00;;;;;;;;;;103803;1291;545512;-74
2023/12/22 18:01:44;;;;;;;12.00;4.20;;;;;;;;;;103812;1304;544914;-71
2023/12/22 18:05:20;;;;;;;11.30;4.60;;;;;;;;;;103799;1292;544976;-74
2023/12/22 18:08:58;;;;;;;11.40;4.20;;;;;;;;;;103811;1293;545183;-71
2023/12/22 18:12:38;;;;;;;11.70;4.00;;;;;;;;;;103731;1305;545183;-71
2023/12/22 18:16:18;;;;;;;14.90;4.30;;;;;;;;;;104627;1283;545053;-71
2023/12/22 18:19:50;;;;;;;8.40;2.80;;;;;;;;;;103750;1289;545778;-70
2023/12/22 18:23:26;;;;;;;11.10;4.40;;;;;;;;;;103689;1291;544932;-71
2023/12/22 18:27:04;;;;;;;8.30;3.20;;;;;;;;;;103717;1291;545069;-71
2023/12/22 18:30:38;;;;;;;10.50;4.20;;;;;;;;;;103706;1292;545752;-71
2023/12/22 18:34:20;;;;;;;15.80;5.10;;;;;;;;;;103685;1291;545528;-69
2023/12/22 18:37:57;;;;;;;15.10;5.70;;;;;;;;;;104141;1289;545352;-71
2023/12/22 18:41:31;;;;;;;10.20;3.30;;;;;;;;;;103896;1295;545070;-70
2023/12/22 18:45:12;;;;;;;37.40;18.90;;;;;;;;;;103639;1292;544796;-71
2023/12/22 18:48:49;;;;;;;19.70;10.10;;;;;;;;;;103671;1291;544987;-70
2023/12/22 18:52:27;;;;;;;9.60;4.00;;;;;;;;;;103896;1296;545206;-70
2023/12/22 18:56:05;;;;;;;11.20;2.90;;;;;;;;;;103918;1290;545393;-71
2023/12/22 18:59:42;;;;;;;23.50;12.10;;;;;;;;;;104740;1282;545712;-73
2023/12/22 19:03:22;;;;;;;9.30;3.60;;;;;;;;;;104050;1295;545102;-71
2023/12/22 19:06:52;;;;;;;9.60;3.30;;;;;;;;;;103916;1289;545873;-71
2023/12/22 19:10:34;;;;;;;7.90;3.10;;;;;;;;;;103848;1289;545146;-72
2023/12/22 19:14:13;;;;;;;11.30;4.20;;;;;;;;;;103782;1291;545640;-73
2023/12/22 19:17:49;;;;;;;20.30;7.30;;;;;;;;;;103812;1294;545619;-71
2023/12/22 19:21:27;;;;;;;8.20;2.50;;;;;;;;;;103867;1289;545441;-71
2023/12/22 19:25:04;;;;;;;13.60;5.60;;;;;;;;;;104332;1290;545192;-72
2023/12/22 19:28:41;;;;;;;23.10;11.30;;;;;;;;;;103703;1292;544951;-71
2023/12/22 19:32:19;;;;;;;18.90;7.30;;;;;;;;;;103998;1294;544861;-70
2023/12/22 19:35:56;;;;;;;23.70;11.00;;;;;;;;;;103917;1292;545250;-70
2023/12/22 19:39:37;;;;;;;28.40;11.10;;;;;;;;;;103771;1291;545054;-69
2023/12/22 19:43:11;;;;;;;11.80;3.60;;;;;;;;;;103797;1295;544855;-71
2023/12/22 19:46:49;;;;;;;9.60;3.20;;;;;;;;;;103727;1291;545546;-72
2023/12/22 19:50:23;;;;;;;9.90;2.80;;;;;;;;;;103750;1288;545922;-71
2023/12/22 19:54:04;;;;;;;9.80;3.30;;;;;;;;;;103753;1291;545039;-71
2023/12/22 19:57:40;;;;;;;9.40;2.20;;;;;;;;;;103836;1289;545471;-70
2023/12/22 20:01:19;;;;;;;9.60;3.60;;;;;;;;;;103952;1290;545006;-73
2023/12/22 20:05:02;;;;;;;7.50;1.50;;;;;;;;;;103754;1289;545241;-70
2023/12/22 20:08:34;;;;;;;8.00;2.00;;;;;;;;;;104066;1292;545623;-71
2023/12/22 20:12:12;;;;;;;7.40;2.40;;;;;;;;;;104036;1289;545509;-73
2023/12/22 20:15:45;;;;;;;9.00;2.80;;;;;;;;;;103538;1291;544859;-71
2023/12/22 20:19:26;;;;;;;8.60;2.50;;;;;;;;;;103602;1292;545226;-69
2023/12/22 20:23:04;;;;;;;9.00;2.50;;;;;;;;;;103638;1292;544841;-71
2023/12/22 20:26:40;;;;;;;10.10;2.70;;;;;;;;;;103858;1291;544749;-72
2023/12/22 20:30:18;;;;;;;10.20;3.00;;;;;;;;;;103475;1292;545335;-71
2023/12/22 20:33:52;;;;;;;14.70;5.70;;;;;;;;;;103731;1290;544813;-70
2023/12/22 20:37:39;;;;;;;11.80;2.60;;;;;;;;;;103572;1297;544774;-70
2023/12/22 20:41:11;;;;;;;9.40;3.10;;;;;;;;;;103777;1295;545820;-73
2023/12/22 20:44:49;;;;;;;12.40;3.90;;;;;;;;;;103683;1291;544994;-72
2023/12/22 20:48:26;;;;;;;12.00;3.50;;;;;;;;;;103800;1302;544707;-67
2023/12/22 20:52:04;;;;;;;8.90;2.70;;;;;;;;;;103613;1292;545496;-71
2023/12/22 20:55:40;;;;;;;9.00;2.80;;;;;;;;;;103636;1292;544845;-71
2023/12/22 20:59:20;;;;;;;14.10;4.70;;;;;;;;;;103944;1288;548072;-69
2023/12/22 21:02:58;;;;;;;12.70;2.70;;;;;;;;;;103872;1292;545435;-71
2023/12/22 21:06:34;;;;;;;9.10;2.20;;;;;;;;;;103983;1290;544736;-72
2023/12/22 21:10:11;;;;;;;11.00;3.30;;;;;;;;;;103832;1292;544845;-71
2023/12/22 21:13:54;;;;;;;11.10;3.00;;;;;;;;;;103615;1292;544808;-72
2023/12/22 21:17:26;;;;;;;15.60;6.70;;;;;;;;;;103760;1292;546044;-72
2023/12/22 21:21:05;;;;;;;17.80;6.60;;;;;;;;;;103815;1292;545672;-72
2023/12/22 21:24:41;;;;;;;28.80;10.90;;;;;;;;;;103820;1293;545417;-72
2023/12/22 21:28:20;;;;;;;26.60;9.60;;;;;;;;;;103852;1292;544867;-71
2023/12/22 21:31:57;;;;;;;30.10;11.60;;;;;;;;;;103749;1292;545168;-72
2023/12/22 21:35:33;;;;;;;16.30;4.70;;;;;;;;;;103884;1292;545105;-71
2023/12/22 21:39:11;;;;;;;15.70;5.10;;;;;;;;;;103660;1295;544720;-70
2023/12/22 21:42:48;;;;;;;11.40;3.70;;;;;;;;;;103701;1293;545064;-71
2023/12/22 21:46:25;;;;;;;14.50;3.10;;;;;;;;;;103961;1292;544909;-72
2023/12/22 21:50:04;;;;;;;12.10;3.20;;;;;;;;;;103966;1288;544613;-70